< < Back
Terminal Aerodrome Forecast


Current Version              Previous Versions:   1  2  3  4  5  6  7  8  9  

Terminal Aerodrome Forecast

354
FTUS44 KOHX 032320
TAFBNA
TAF
KBNA 032320Z 0400/0424 28004KT P6SM SCT250
      TEMPO 0409/0412 5SM BR
     FM041600 29007KT P6SM SCT050=

Latest METAR

624
SAUS70 KWBC 041800 RRI
MTRBNA
METAR KBNA 041753Z 24007KT 10SM SCT055 SCT070 BKN250 34/18 A3001 RMK AO2
SLP154 T03440178 10350 20233 58005


USA.gov is the U.S. government's official web portal to all federal, state and local government web resources and services.